sensor_id;sensor_type;location;lat;lon;timestamp;temperature;humidity
32522;DHT22;18963;51.504;5.316;2023-07-13T00:00:26;12.30;99.90
32522;DHT22;18963;51.504;5.316;2023-07-13T00:02:51;12.20;99.90
32522;DHT22;18963;51.504;5.316;2023-07-13T00:05:20;12.30;99.90
32522;DHT22;18963;51.504;5.316;2023-07-13T00:07:45;12.30;99.90
32522;DHT22;18963;51.504;5.316;2023-07-13T00:10:11;12.20;99.90
32522;DHT22;18963;51.504;5.316;2023-07-13T00:12:37;12.20;99.90
32522;DHT22;18963;51.504;5.316;2023-07-13T00:15:05;12.20;99.90
32522;DHT22;18963;51.504;5.316;2023-07-13T00:17:31;12.20;99.90
32522;DHT22;18963;51.504;5.316;2023-07-13T00:19:57;12.20;99.90
32522;DHT22;18963;51.504;5.316;2023-07-13T00:22:23;12.20;99.90
32522;DHT22;18963;51.504;5.316;2023-07-13T00:24:51;12.20;99.90
32522;DHT22;18963;51.504;5.316;2023-07-13T00:27:17;12.20;99.90
32522;DHT22;18963;51.504;5.316;2023-07-13T00:29:43;12.10;99.90
32522;DHT22;18963;51.504;5.316;2023-07-13T00:32:09;12.20;99.90
32522;DHT22;18963;51.504;5.316;2023-07-13T00:34:35;12.20;99.90
32522;DHT22;18963;51.504;5.316;2023-07-13T00:37:00;12.10;99.90
32522;DHT22;18963;51.504;5.316;2023-07-13T00:39:27;12.10;99.90
32522;DHT22;18963;51.504;5.316;2023-07-13T00:41:52;12.10;99.90
32522;DHT22;18963;51.504;5.316;2023-07-13T00:44:19;12.10;99.90
32522;DHT22;18963;51.504;5.316;2023-07-13T00:46:45;12.10;99.90
32522;DHT22;18963;51.504;5.316;2023-07-13T00:49:12;12.10;99.90
32522;DHT22;18963;51.504;5.316;2023-07-13T00:54:04;12.10;99.90
32522;DHT22;18963;51.504;5.316;2023-07-13T00:56:31;12.10;99.90
32522;DHT22;18963;51.504;5.316;2023-07-13T00:58:58;12.00;99.90
32522;DHT22;18963;51.504;5.316;2023-07-13T01:01:24;12.00;99.90
32522;DHT22;18963;51.504;5.316;2023-07-13T01:03:50;12.00;99.90
32522;DHT22;18963;51.504;5.316;2023-07-13T01:06:15;12.10;99.90
32522;DHT22;18963;51.504;5.316;2023-07-13T01:08:42;12.10;99.90
32522;DHT22;18963;51.504;5.316;2023-07-13T01:11:08;12.10;99.90
32522;DHT22;18963;51.504;5.316;2023-07-13T01:13:34;12.10;99.90
32522;DHT22;18963;51.504;5.316;2023-07-13T01:16:01;12.10;99.90
32522;DHT22;18963;51.504;5.316;2023-07-13T01:18:28;12.20;99.90
32522;DHT22;18963;51.504;5.316;2023-07-13T01:23:23;12.10;99.90
32522;DHT22;18963;51.504;5.316;2023-07-13T01:25:49;12.10;99.90
32522;DHT22;18963;51.504;5.316;2023-07-13T01:28:15;12.10;99.90
32522;DHT22;18963;51.504;5.316;2023-07-13T01:30:42;12.10;99.90
32522;DHT22;18963;51.504;5.316;2023-07-13T01:33:11;12.10;99.90
32522;DHT22;18963;51.504;5.316;2023-07-13T01:35:37;12.10;99.90
32522;DHT22;18963;51.504;5.316;2023-07-13T01:38:03;12.10;99.90
32522;DHT22;18963;51.504;5.316;2023-07-13T01:40:29;12.10;99.90
32522;DHT22;18963;51.504;5.316;2023-07-13T01:42:55;12.00;99.90
32522;DHT22;18963;51.504;5.316;2023-07-13T01:45:21;12.00;99.90
32522;DHT22;18963;51.504;5.316;2023-07-13T01:47:46;12.00;99.90
32522;DHT22;18963;51.504;5.316;2023-07-13T01:50:12;12.00;99.90
32522;DHT22;18963;51.504;5.316;2023-07-13T01:52:38;11.90;99.90
32522;DHT22;18963;51.504;5.316;2023-07-13T01:55:03;11.90;99.90
32522;DHT22;18963;51.504;5.316;2023-07-13T01:57:29;11.90;99.90
32522;DHT22;18963;51.504;5.316;2023-07-13T01:59:54;11.90;99.90
32522;DHT22;18963;51.504;5.316;2023-07-13T02:02:20;11.90;99.90
32522;DHT22;18963;51.504;5.316;2023-07-13T02:04:45;11.90;99.90
32522;DHT22;18963;51.504;5.316;2023-07-13T02:07:11;11.90;99.90
32522;DHT22;18963;51.504;5.316;2023-07-13T02:09:36;11.90;99.90
32522;DHT22;18963;51.504;5.316;2023-07-13T02:12:02;11.90;99.90
32522;DHT22;18963;51.504;5.316;2023-07-13T02:14:28;12.00;99.90
32522;DHT22;18963;51.504;5.316;2023-07-13T02:16:54;12.00;99.90
32522;DHT22;18963;51.504;5.316;2023-07-13T02:19:19;11.90;99.90
32522;DHT22;18963;51.504;5.316;2023-07-13T02:21:45;11.90;99.90
32522;DHT22;18963;51.504;5.316;2023-07-13T02:24:11;11.90;99.90
32522;DHT22;18963;51.504;5.316;2023-07-13T02:26:43;11.90;99.90
32522;DHT22;18963;51.504;5.316;2023-07-13T02:29:08;11.90;99.90
32522;DHT22;18963;51.504;5.316;2023-07-13T02:31:34;11.90;99.90
32522;DHT22;18963;51.504;5.316;2023-07-13T02:34:01;11.90;99.90
32522;DHT22;18963;51.504;5.316;2023-07-13T02:36:26;11.90;99.90
32522;DHT22;18963;51.504;5.316;2023-07-13T02:38:52;11.90;99.90
32522;DHT22;18963;51.504;5.316;2023-07-13T02:41:18;11.90;99.90
32522;DHT22;18963;51.504;5.316;2023-07-13T02:43:43;11.90;99.90
32522;DHT22;18963;51.504;5.316;2023-07-13T02:46:09;11.90;99.90
32522;DHT22;18963;51.504;5.316;2023-07-13T02:48:35;11.80;99.90
32522;DHT22;18963;51.504;5.316;2023-07-13T02:51:01;11.80;99.90
32522;DHT22;18963;51.504;5.316;2023-07-13T02:53:26;11.80;99.90
32522;DHT22;18963;51.504;5.316;2023-07-13T02:55:52;11.80;99.90
32522;DHT22;18963;51.504;5.316;2023-07-13T02:58:18;11.80;99.90
32522;DHT22;18963;51.504;5.316;2023-07-13T03:00:44;11.90;99.90
32522;DHT22;18963;51.504;5.316;2023-07-13T03:03:11;11.90;99.90
32522;DHT22;18963;51.504;5.316;2023-07-13T03:05:39;11.90;99.90
32522;DHT22;18963;51.504;5.316;2023-07-13T03:08:05;11.90;99.90
32522;DHT22;18963;51.504;5.316;2023-07-13T03:10:31;11.90;99.90
32522;DHT22;18963;51.504;5.316;2023-07-13T03:12:57;11.90;99.90
32522;DHT22;18963;51.504;5.316;2023-07-13T03:15:22;11.90;99.90
32522;DHT22;18963;51.504;5.316;2023-07-13T03:17:48;11.80;99.90
32522;DHT22;18963;51.504;5.316;2023-07-13T03:20:14;11.90;99.90
32522;DHT22;18963;51.504;5.316;2023-07-13T03:22:40;11.90;99.90
32522;DHT22;18963;51.504;5.316;2023-07-13T03:25:06;11.90;99.90
32522;DHT22;18963;51.504;5.316;2023-07-13T03:27:31;11.90;99.90
32522;DHT22;18963;51.504;5.316;2023-07-13T03:29:57;11.90;99.90
32522;DHT22;18963;51.504;5.316;2023-07-13T03:32:22;11.80;99.90
32522;DHT22;18963;51.504;5.316;2023-07-13T03:34:48;11.90;99.90
32522;DHT22;18963;51.504;5.316;2023-07-13T03:37:13;11.90;99.90
32522;DHT22;18963;51.504;5.316;2023-07-13T03:39:39;11.90;99.90
32522;DHT22;18963;51.504;5.316;2023-07-13T03:42:04;11.90;99.90
32522;DHT22;18963;51.504;5.316;2023-07-13T03:44:30;12.00;99.90
32522;DHT22;18963;51.504;5.316;2023-07-13T03:46:56;12.00;99.90
32522;DHT22;18963;51.504;5.316;2023-07-13T03:49:21;12.10;99.90
32522;DHT22;18963;51.504;5.316;2023-07-13T03:51:47;12.10;99.90
32522;DHT22;18963;51.504;5.316;2023-07-13T03:54:12;12.10;99.90
32522;DHT22;18963;51.504;5.316;2023-07-13T03:56:38;12.20;99.90
32522;DHT22;18963;51.504;5.316;2023-07-13T03:59:03;12.20;99.90
32522;DHT22;18963;51.504;5.316;2023-07-13T04:01:29;12.20;99.90
32522;DHT22;18963;51.504;5.316;2023-07-13T04:03:55;12.20;99.90
32522;DHT22;18963;51.504;5.316;2023-07-13T04:06:25;12.30;99.90
32522;DHT22;18963;51.504;5.316;2023-07-13T04:08:52;12.30;99.90
32522;DHT22;18963;51.504;5.316;2023-07-13T04:11:18;12.40;99.90
32522;DHT22;18963;51.504;5.316;2023-07-13T04:13:44;12.40;99.90
32522;DHT22;18963;51.504;5.316;2023-07-13T04:16:10;12.50;99.90
32522;DHT22;18963;51.504;5.316;2023-07-13T04:18:35;12.60;99.90
32522;DHT22;18963;51.504;5.316;2023-07-13T04:21:01;12.60;99.90
32522;DHT22;18963;51.504;5.316;2023-07-13T04:23:26;12.70;99.90
32522;DHT22;18963;51.504;5.316;2023-07-13T04:25:52;12.80;99.90
32522;DHT22;18963;51.504;5.316;2023-07-13T04:28:19;12.90;99.90
32522;DHT22;18963;51.504;5.316;2023-07-13T04:30:44;13.10;99.90
32522;DHT22;18963;51.504;5.316;2023-07-13T04:33:10;13.20;99.90
32522;DHT22;18963;51.504;5.316;2023-07-13T04:35:36;13.30;99.90
32522;DHT22;18963;51.504;5.316;2023-07-13T04:38:02;13.40;99.90
32522;DHT22;18963;51.504;5.316;2023-07-13T04:40:28;13.50;99.90
32522;DHT22;18963;51.504;5.316;2023-07-13T04:42:54;13.60;99.90
32522;DHT22;18963;51.504;5.316;2023-07-13T04:45:20;13.70;99.90
32522;DHT22;18963;51.504;5.316;2023-07-13T04:47:45;13.80;99.90
32522;DHT22;18963;51.504;5.316;2023-07-13T04:50:12;13.90;99.90
32522;DHT22;18963;51.504;5.316;2023-07-13T04:52:40;14.00;99.90
32522;DHT22;18963;51.504;5.316;2023-07-13T04:55:07;14.10;99.90
32522;DHT22;18963;51.504;5.316;2023-07-13T04:57:33;14.20;99.90
32522;DHT22;18963;51.504;5.316;2023-07-13T04:59:58;14.40;99.90
32522;DHT22;18963;51.504;5.316;2023-07-13T05:02:26;14.50;99.90
32522;DHT22;18963;51.504;5.316;2023-07-13T05:04:53;14.60;99.90
32522;DHT22;18963;51.504;5.316;2023-07-13T05:07:19;14.70;99.90
32522;DHT22;18963;51.504;5.316;2023-07-13T05:09:44;14.70;99.90
32522;DHT22;18963;51.504;5.316;2023-07-13T05:12:10;14.80;99.90
32522;DHT22;18963;51.504;5.316;2023-07-13T05:14:35;14.90;99.90
32522;DHT22;18963;51.504;5.316;2023-07-13T05:17:01;14.90;99.90
32522;DHT22;18963;51.504;5.316;2023-07-13T05:19:26;15.00;99.90
32522;DHT22;18963;51.504;5.316;2023-07-13T05:21:52;15.10;99.90
32522;DHT22;18963;51.504;5.316;2023-07-13T05:24:17;15.10;99.90
32522;DHT22;18963;51.504;5.316;2023-07-13T05:26:44;15.20;99.90
32522;DHT22;18963;51.504;5.316;2023-07-13T05:29:09;15.30;99.90
32522;DHT22;18963;51.504;5.316;2023-07-13T05:31:35;15.30;99.90
32522;DHT22;18963;51.504;5.316;2023-07-13T05:34:00;15.40;99.90
32522;DHT22;18963;51.504;5.316;2023-07-13T05:36:26;15.40;99.90
32522;DHT22;18963;51.504;5.316;2023-07-13T05:38:51;15.50;99.90
32522;DHT22;18963;51.504;5.316;2023-07-13T05:41:17;15.50;99.90
32522;DHT22;18963;51.504;5.316;2023-07-13T05:43:42;15.60;99.90
32522;DHT22;18963;51.504;5.316;2023-07-13T05:46:08;15.70;99.90
32522;DHT22;18963;51.504;5.316;2023-07-13T05:48:34;15.80;99.90
32522;DHT22;18963;51.504;5.316;2023-07-13T05:51:00;15.90;99.90
32522;DHT22;18963;51.504;5.316;2023-07-13T05:53:25;16.00;99.90
32522;DHT22;18963;51.504;5.316;2023-07-13T05:55:51;16.10;99.90
32522;DHT22;18963;51.504;5.316;2023-07-13T05:58:19;16.20;99.90
32522;DHT22;18963;51.504;5.316;2023-07-13T06:00:45;16.30;99.90
32522;DHT22;18963;51.504;5.316;2023-07-13T06:03:11;16.40;99.90
32522;DHT22;18963;51.504;5.316;2023-07-13T06:05:36;16.60;99.90
32522;DHT22;18963;51.504;5.316;2023-07-13T06:08:03;16.60;99.90
32522;DHT22;18963;51.504;5.316;2023-07-13T06:10:29;16.80;99.90
32522;DHT22;18963;51.504;5.316;2023-07-13T06:12:54;16.90;99.90
32522;DHT22;18963;51.504;5.316;2023-07-13T06:15:20;17.00;99.90
32522;DHT22;18963;51.504;5.316;2023-07-13T06:17:45;17.10;99.90
32522;DHT22;18963;51.504;5.316;2023-07-13T06:20:11;17.10;99.90
32522;DHT22;18963;51.504;5.316;2023-07-13T06:22:37;17.10;99.90
32522;DHT22;18963;51.504;5.316;2023-07-13T06:25:03;17.20;99.90
32522;DHT22;18963;51.504;5.316;2023-07-13T06:27:28;17.20;99.90
32522;DHT22;18963;51.504;5.316;2023-07-13T06:29:54;17.20;99.90
32522;DHT22;18963;51.504;5.316;2023-07-13T06:32:19;17.20;99.90
32522;DHT22;18963;51.504;5.316;2023-07-13T06:34:45;17.30;99.90
32522;DHT22;18963;51.504;5.316;2023-07-13T06:37:11;17.30;99.90
32522;DHT22;18963;51.504;5.316;2023-07-13T06:39:37;17.40;99.90
32522;DHT22;18963;51.504;5.316;2023-07-13T06:42:02;17.40;99.90
32522;DHT22;18963;51.504;5.316;2023-07-13T06:44:28;17.50;99.90
32522;DHT22;18963;51.504;5.316;2023-07-13T06:46:53;17.60;99.90
32522;DHT22;18963;51.504;5.316;2023-07-13T06:49:19;17.70;99.90
32522;DHT22;18963;51.504;5.316;2023-07-13T06:51:44;17.70;99.90
32522;DHT22;18963;51.504;5.316;2023-07-13T06:54:10;17.70;99.90
32522;DHT22;18963;51.504;5.316;2023-07-13T06:56:35;17.80;99.90
32522;DHT22;18963;51.504;5.316;2023-07-13T06:59:01;17.80;99.90
32522;DHT22;18963;51.504;5.316;2023-07-13T07:01:26;17.90;99.90
32522;DHT22;18963;51.504;5.316;2023-07-13T07:03:52;18.00;99.90
32522;DHT22;18963;51.504;5.316;2023-07-13T07:06:18;18.10;99.90
32522;DHT22;18963;51.504;5.316;2023-07-13T07:08:44;18.10;99.90
32522;DHT22;18963;51.504;5.316;2023-07-13T07:11:13;18.10;99.90
32522;DHT22;18963;51.504;5.316;2023-07-13T07:13:39;18.20;99.90
32522;DHT22;18963;51.504;5.316;2023-07-13T07:16:04;18.10;99.90
32522;DHT22;18963;51.504;5.316;2023-07-13T07:18:30;18.20;99.90
32522;DHT22;18963;51.504;5.316;2023-07-13T07:20:55;18.30;99.90
32522;DHT22;18963;51.504;5.316;2023-07-13T07:23:21;18.30;99.90
32522;DHT22;18963;51.504;5.316;2023-07-13T07:25:47;18.60;99.90
32522;DHT22;18963;51.504;5.316;2023-07-13T07:28:14;18.80;99.90
32522;DHT22;18963;51.504;5.316;2023-07-13T07:30:44;19.00;99.90
32522;DHT22;18963;51.504;5.316;2023-07-13T07:33:09;19.30;99.90
32522;DHT22;18963;51.504;5.316;2023-07-13T07:35:35;19.50;99.90
32522;DHT22;18963;51.504;5.316;2023-07-13T07:38:00;19.60;99.90
32522;DHT22;18963;51.504;5.316;2023-07-13T07:40:26;19.70;99.90
32522;DHT22;18963;51.504;5.316;2023-07-13T07:42:52;19.90;99.90
32522;DHT22;18963;51.504;5.316;2023-07-13T07:45:18;20.00;99.90
32522;DHT22;18963;51.504;5.316;2023-07-13T07:47:44;20.20;99.90
32522;DHT22;18963;51.504;5.316;2023-07-13T07:50:10;20.40;99.90
32522;DHT22;18963;51.504;5.316;2023-07-13T07:52:35;20.70;99.90
32522;DHT22;18963;51.504;5.316;2023-07-13T07:55:01;21.20;99.90
32522;DHT22;18963;51.504;5.316;2023-07-13T07:57:26;21.50;99.90
32522;DHT22;18963;51.504;5.316;2023-07-13T07:59:52;21.50;99.90
32522;DHT22;18963;51.504;5.316;2023-07-13T08:02:17;21.60;99.90
32522;DHT22;18963;51.504;5.316;2023-07-13T08:04:43;21.60;99.90
32522;DHT22;18963;51.504;5.316;2023-07-13T08:07:09;21.70;99.90
32522;DHT22;18963;51.504;5.316;2023-07-13T08:09:34;21.80;99.90
32522;DHT22;18963;51.504;5.316;2023-07-13T08:12:00;22.20;99.90
32522;DHT22;18963;51.504;5.316;2023-07-13T08:14:25;22.50;99.90
32522;DHT22;18963;51.504;5.316;2023-07-13T08:16:51;22.90;99.90
32522;DHT22;18963;51.504;5.316;2023-07-13T08:19:17;23.30;99.90
32522;DHT22;18963;51.504;5.316;2023-07-13T08:21:42;23.40;99.90
32522;DHT22;18963;51.504;5.316;2023-07-13T08:24:08;23.30;99.90
32522;DHT22;18963;51.504;5.316;2023-07-13T08:26:34;23.50;99.90
32522;DHT22;18963;51.504;5.316;2023-07-13T08:28:59;23.70;99.90
32522;DHT22;18963;51.504;5.316;2023-07-13T08:31:25;24.00;99.30
32522;DHT22;18963;51.504;5.316;2023-07-13T08:33:51;24.10;99.70
32522;DHT22;18963;51.504;5.316;2023-07-13T08:36:16;24.10;98.60
32522;DHT22;18963;51.504;5.316;2023-07-13T08:38:42;24.00;98.00
32522;DHT22;18963;51.504;5.316;2023-07-13T08:41:12;23.90;99.30
32522;DHT22;18963;51.504;5.316;2023-07-13T08:43:37;24.10;99.30
32522;DHT22;18963;51.504;5.316;2023-07-13T08:46:15;24.30;98.50
32522;DHT22;18963;51.504;5.316;2023-07-13T08:48:45;24.70;97.00
32522;DHT22;18963;51.504;5.316;2023-07-13T08:53:49;25.10;96.60
32522;DHT22;18963;51.504;5.316;2023-07-13T08:56:19;25.40;95.50
32522;DHT22;18963;51.504;5.316;2023-07-13T08:58:46;25.70;93.40
32522;DHT22;18963;51.504;5.316;2023-07-13T09:01:16;25.30;93.50
32522;DHT22;18963;51.504;5.316;2023-07-13T09:03:52;25.10;92.90
32522;DHT22;18963;51.504;5.316;2023-07-13T09:06:20;25.00;93.10
32522;DHT22;18963;51.504;5.316;2023-07-13T09:08:51;24.80;93.40
32522;DHT22;18963;51.504;5.316;2023-07-13T09:13:50;24.60;93.90
32522;DHT22;18963;51.504;5.316;2023-07-13T09:16:16;24.60;94.10
32522;DHT22;18963;51.504;5.316;2023-07-13T09:18:52;24.60;92.90
32522;DHT22;18963;51.504;5.316;2023-07-13T09:21:30;24.60;94.20
32522;DHT22;18963;51.504;5.316;2023-07-13T09:23:59;24.50;94.10
32522;DHT22;18963;51.504;5.316;2023-07-13T09:26:25;24.50;93.90
32522;DHT22;18963;51.504;5.316;2023-07-13T09:28:59;24.50;94.50
32522;DHT22;18963;51.504;5.316;2023-07-13T09:31:30;24.60;93.80
32522;DHT22;18963;51.504;5.316;2023-07-13T09:33:59;24.50;94.00
32522;DHT22;18963;51.504;5.316;2023-07-13T09:36:26;24.60;93.50
32522;DHT22;18963;51.504;5.316;2023-07-13T09:38:57;24.60;92.60
32522;DHT22;18963;51.504;5.316;2023-07-13T09:42:25;24.80;92.80
32522;DHT22;18963;51.504;5.316;2023-07-13T09:44:28;24.90;92.00
32522;DHT22;18963;51.504;5.316;2023-07-13T09:46:56;25.10;91.50
32522;DHT22;18963;51.504;5.316;2023-07-13T09:49:35;25.30;91.80
32522;DHT22;18963;51.504;5.316;2023-07-13T09:52:03;25.40;90.60
32522;DHT22;18963;51.504;5.316;2023-07-13T09:54:29;25.60;91.00
32522;DHT22;18963;51.504;5.316;2023-07-13T09:56:55;25.60;89.40
32522;DHT22;18963;51.504;5.316;2023-07-13T09:59:22;25.30;90.30
32522;DHT22;18963;51.504;5.316;2023-07-13T10:01:49;25.30;90.40
32522;DHT22;18963;51.504;5.316;2023-07-13T10:04:17;25.10;90.50
32522;DHT22;18963;51.504;5.316;2023-07-13T10:06:44;25.10;90.40
32522;DHT22;18963;51.504;5.316;2023-07-13T10:09:09;25.20;91.30
32522;DHT22;18963;51.504;5.316;2023-07-13T10:11:36;25.30;89.20
32522;DHT22;18963;51.504;5.316;2023-07-13T10:14:03;25.20;86.60
32522;DHT22;18963;51.504;5.316;2023-07-13T10:16:34;25.00;88.60
32522;DHT22;18963;51.504;5.316;2023-07-13T10:21:27;24.60;91.00
32522;DHT22;18963;51.504;5.316;2023-07-13T10:23:55;24.40;90.10
32522;DHT22;18963;51.504;5.316;2023-07-13T10:26:26;24.50;90.50
32522;DHT22;18963;51.504;5.316;2023-07-13T10:28:55;24.50;91.00
32522;DHT22;18963;51.504;5.316;2023-07-13T10:31:22;24.60;90.50
32522;DHT22;18963;51.504;5.316;2023-07-13T10:33:48;24.60;89.10
32522;DHT22;18963;51.504;5.316;2023-07-13T10:38:40;23.70;94.60
32522;DHT22;18963;51.504;5.316;2023-07-13T10:41:07;23.00;96.10
32522;DHT22;18963;51.504;5.316;2023-07-13T10:43:37;22.40;99.60
32522;DHT22;18963;51.504;5.316;2023-07-13T10:46:08;21.80;99.90
32522;DHT22;18963;51.504;5.316;2023-07-13T10:48:35;21.30;99.90
32522;DHT22;18963;51.504;5.316;2023-07-13T10:51:03;20.90;99.90
32522;DHT22;18963;51.504;5.316;2023-07-13T10:53:32;20.70;99.90
32522;DHT22;18963;51.504;5.316;2023-07-13T10:55:59;20.60;99.90
32522;DHT22;18963;51.504;5.316;2023-07-13T10:58:38;20.70;99.90
32522;DHT22;18963;51.504;5.316;2023-07-13T11:18:47;25.10;96.10
32522;DHT22;18963;51.504;5.316;2023-07-13T11:21:20;25.60;93.70
32522;DHT22;18963;51.504;5.316;2023-07-13T11:23:52;25.90;93.60
32522;DHT22;18963;51.504;5.316;2023-07-13T11:29:07;26.90;88.80
32522;DHT22;18963;51.504;5.316;2023-07-13T11:31:33;27.40;84.30
32522;DHT22;18963;51.504;5.316;2023-07-13T11:33:59;27.50;83.20
32522;DHT22;18963;51.504;5.316;2023-07-13T11:36:29;27.80;83.60
32522;DHT22;18963;51.504;5.316;2023-07-13T11:41:24;28.20;75.90
32522;DHT22;18963;51.504;5.316;2023-07-13T11:43:55;28.10;76.70
32522;DHT22;18963;51.504;5.316;2023-07-13T11:48:46;27.30;77.60
32522;DHT22;18963;51.504;5.316;2023-07-13T11:51:17;27.10;77.20
32522;DHT22;18963;51.504;5.316;2023-07-13T11:53:45;26.70;76.40
32522;DHT22;18963;51.504;5.316;2023-07-13T11:56:11;26.40;76.90
32522;DHT22;18963;51.504;5.316;2023-07-13T11:58:37;26.40;77.20
32522;DHT22;18963;51.504;5.316;2023-07-13T12:01:03;26.80;77.00
32522;DHT22;18963;51.504;5.316;2023-07-13T12:03:32;27.30;75.60
32522;DHT22;18963;51.504;5.316;2023-07-13T12:08:26;28.50;71.30
32522;DHT22;18963;51.504;5.316;2023-07-13T12:11:04;29.00;70.60
32522;DHT22;18963;51.504;5.316;2023-07-13T12:13:34;29.50;69.00
32522;DHT22;18963;51.504;5.316;2023-07-13T12:16:00;29.80;66.00
32522;DHT22;18963;51.504;5.316;2023-07-13T12:18:29;29.90;65.70
32522;DHT22;18963;51.504;5.316;2023-07-13T12:20:56;29.90;63.90
32522;DHT22;18963;51.504;5.316;2023-07-13T12:23:24;29.70;62.60
32522;DHT22;18963;51.504;5.316;2023-07-13T12:25:51;29.20;60.20
32522;DHT22;18963;51.504;5.316;2023-07-13T12:28:21;28.60;58.70
32522;DHT22;18963;51.504;5.316;2023-07-13T12:30:47;28.10;60.00
32522;DHT22;18963;51.504;5.316;2023-07-13T12:33:13;27.70;61.40
32522;DHT22;18963;51.504;5.316;2023-07-13T12:35:40;27.30;61.20
32522;DHT22;18963;51.504;5.316;2023-07-13T12:38:10;27.00;63.60
32522;DHT22;18963;51.504;5.316;2023-07-13T12:40:36;26.50;64.10
32522;DHT22;18963;51.504;5.316;2023-07-13T12:43:02;26.00;73.80
32522;DHT22;18963;51.504;5.316;2023-07-13T12:45:30;25.40;85.80
32522;DHT22;18963;51.504;5.316;2023-07-13T12:47:56;24.50;90.40
32522;DHT22;18963;51.504;5.316;2023-07-13T12:50:29;23.70;93.30
32522;DHT22;18963;51.504;5.316;2023-07-13T12:52:57;23.00;97.50
32522;DHT22;18963;51.504;5.316;2023-07-13T12:55:24;22.50;96.00
32522;DHT22;18963;51.504;5.316;2023-07-13T12:57:51;22.10;97.10
32522;DHT22;18963;51.504;5.316;2023-07-13T13:02:45;21.60;97.20
32522;DHT22;18963;51.504;5.316;2023-07-13T13:05:14;21.50;98.30
32522;DHT22;18963;51.504;5.316;2023-07-13T13:07:40;21.40;98.40
32522;DHT22;18963;51.504;5.316;2023-07-13T13:10:12;21.30;97.00
32522;DHT22;18963;51.504;5.316;2023-07-13T13:12:39;21.20;97.50
32522;DHT22;18963;51.504;5.316;2023-07-13T13:15:08;21.20;97.40
32522;DHT22;18963;51.504;5.316;2023-07-13T13:17:33;21.30;97.70
32522;DHT22;18963;51.504;5.316;2023-07-13T13:19:59;21.50;97.30
32522;DHT22;18963;51.504;5.316;2023-07-13T13:22:25;21.80;97.20
32522;DHT22;18963;51.504;5.316;2023-07-13T13:24:50;22.00;95.70
32522;DHT22;18963;51.504;5.316;2023-07-13T13:27:16;22.00;94.70
32522;DHT22;18963;51.504;5.316;2023-07-13T13:29:43;22.10;95.60
32522;DHT22;18963;51.504;5.316;2023-07-13T13:32:13;22.20;95.90
32522;DHT22;18963;51.504;5.316;2023-07-13T13:34:39;22.20;94.80
32522;DHT22;18963;51.504;5.316;2023-07-13T13:37:11;22.10;95.30
32522;DHT22;18963;51.504;5.316;2023-07-13T13:39:41;22.00;94.70
32522;DHT22;18963;51.504;5.316;2023-07-13T13:42:08;21.90;95.50
32522;DHT22;18963;51.504;5.316;2023-07-13T13:44:34;21.80;95.70
32522;DHT22;18963;51.504;5.316;2023-07-13T13:47:00;21.70;95.70
32522;DHT22;18963;51.504;5.316;2023-07-13T13:49:26;21.60;95.40
32522;DHT22;18963;51.504;5.316;2023-07-13T13:51:52;21.50;96.50
32522;DHT22;18963;51.504;5.316;2023-07-13T13:54:18;21.50;96.10
32522;DHT22;18963;51.504;5.316;2023-07-13T13:56:44;21.60;96.70
32522;DHT22;18963;51.504;5.316;2023-07-13T13:59:10;21.60;96.20
32522;DHT22;18963;51.504;5.316;2023-07-13T14:01:36;21.70;96.30
32522;DHT22;18963;51.504;5.316;2023-07-13T14:04:03;21.90;95.70
32522;DHT22;18963;51.504;5.316;2023-07-13T14:06:29;22.00;94.50
32522;DHT22;18963;51.504;5.316;2023-07-13T14:08:54;22.10;95.60
32522;DHT22;18963;51.504;5.316;2023-07-13T14:11:23;22.30;94.70
32522;DHT22;18963;51.504;5.316;2023-07-13T14:13:50;22.50;93.70
32522;DHT22;18963;51.504;5.316;2023-07-13T14:16:16;22.70;94.80
32522;DHT22;18963;51.504;5.316;2023-07-13T14:18:46;22.90;93.30
32522;DHT22;18963;51.504;5.316;2023-07-13T14:21:16;23.10;92.60
32522;DHT22;18963;51.504;5.316;2023-07-13T14:23:43;23.30;92.50
32522;DHT22;18963;51.504;5.316;2023-07-13T14:26:13;23.50;92.00
32522;DHT22;18963;51.504;5.316;2023-07-13T14:28:41;23.80;91.80
32522;DHT22;18963;51.504;5.316;2023-07-13T14:31:08;24.20;90.80
32522;DHT22;18963;51.504;5.316;2023-07-13T14:33:34;24.50;90.50
32522;DHT22;18963;51.504;5.316;2023-07-13T14:35:59;24.70;89.80
32522;DHT22;18963;51.504;5.316;2023-07-13T14:38:25;24.90;90.00
32522;DHT22;18963;51.504;5.316;2023-07-13T14:40:50;25.00;88.70
32522;DHT22;18963;51.504;5.316;2023-07-13T14:43:16;25.10;88.60
32522;DHT22;18963;51.504;5.316;2023-07-13T14:45:46;25.20;88.60
32522;DHT22;18963;51.504;5.316;2023-07-13T14:48:20;25.20;88.70
32522;DHT22;18963;51.504;5.316;2023-07-13T14:50:46;25.00;89.10
32522;DHT22;18963;51.504;5.316;2023-07-13T14:53:12;24.80;90.10
32522;DHT22;18963;51.504;5.316;2023-07-13T14:55:38;24.60;90.70
32522;DHT22;18963;51.504;5.316;2023-07-13T14:58:04;24.30;90.80
32522;DHT22;18963;51.504;5.316;2023-07-13T15:00:30;24.20;91.90
32522;DHT22;18963;51.504;5.316;2023-07-13T15:02:57;23.90;91.60
32522;DHT22;18963;51.504;5.316;2023-07-13T15:05:24;23.70;92.20
32522;DHT22;18963;51.504;5.316;2023-07-13T15:07:52;23.50;93.10
32522;DHT22;18963;51.504;5.316;2023-07-13T15:10:28;23.30;93.90
32522;DHT22;18963;51.504;5.316;2023-07-13T15:12:59;23.20;96.80
32522;DHT22;18963;51.504;5.316;2023-07-13T15:15:26;23.10;99.00
32522;DHT22;18963;51.504;5.316;2023-07-13T15:17:52;22.90;96.90
32522;DHT22;18963;51.504;5.316;2023-07-13T15:20:35;22.80;97.30
32522;DHT22;18963;51.504;5.316;2023-07-13T15:23:01;22.60;97.90
32522;DHT22;18963;51.504;5.316;2023-07-13T15:25:27;22.50;98.70
32522;DHT22;18963;51.504;5.316;2023-07-13T15:27:53;22.40;98.20
32522;DHT22;18963;51.504;5.316;2023-07-13T15:30:19;22.40;98.50
32522;DHT22;18963;51.504;5.316;2023-07-13T15:32:45;22.40;99.10
32522;DHT22;18963;51.504;5.316;2023-07-13T15:35:18;22.50;99.30
32522;DHT22;18963;51.504;5.316;2023-07-13T15:37:44;22.60;99.90
32522;DHT22;18963;51.504;5.316;2023-07-13T15:40:10;22.70;97.30
32522;DHT22;18963;51.504;5.316;2023-07-13T15:42:37;22.70;96.90
32522;DHT22;18963;51.504;5.316;2023-07-13T15:45:04;22.70;97.40
32522;DHT22;18963;51.504;5.316;2023-07-13T15:47:31;22.80;96.50
32522;DHT22;18963;51.504;5.316;2023-07-13T15:49:57;22.90;96.20
32522;DHT22;18963;51.504;5.316;2023-07-13T15:52:23;22.90;96.00
32522;DHT22;18963;51.504;5.316;2023-07-13T15:54:49;22.90;96.00
32522;DHT22;18963;51.504;5.316;2023-07-13T15:57:15;22.80;95.70
32522;DHT22;18963;51.504;5.316;2023-07-13T15:59:41;22.80;95.60
32522;DHT22;18963;51.504;5.316;2023-07-13T16:02:18;22.80;94.90
32522;DHT22;18963;51.504;5.316;2023-07-13T16:04:44;22.70;95.30
32522;DHT22;18963;51.504;5.316;2023-07-13T16:07:10;22.70;95.90
32522;DHT22;18963;51.504;5.316;2023-07-13T16:09:36;22.70;94.90
32522;DHT22;18963;51.504;5.316;2023-07-13T16:12:01;22.70;94.90